Time;durP1;ratioP1;P1;durP2;ratioP2;P2;SDS_P1;SDS_P2;PMS_P1;PMS_P2;Temp;Humidity;BMP_temperature;BMP_pressure;BME280_temperature;BME280_humidity;BME280_pressure;Samples;Min_cycle;Max_cycle;Signal;HPM_P1;HPM_P2
2023/11/30 00:01:26;;;;;;;16.48;12.10;;;1.10;99.90;;;;;;5017238;28;20205;-79
2023/11/30 00:03:54;;;;;;;14.00;10.65;;;1.10;99.90;;;;;;5010560;28;20621;-79
2023/11/30 00:06:21;;;;;;;16.27;10.87;;;1.00;99.90;;;;;;5017263;28;20229;-80
2023/11/30 00:08:53;;;;;;;15.70;10.75;;;1.10;99.90;;;;;;5012515;28;20890;-79
2023/11/30 00:11:23;;;;;;;20.83;10.87;;;1.10;99.90;;;;;;5021928;28;20202;-79
2023/11/30 00:14:00;;;;;;;15.25;10.65;;;1.10;99.90;;;;;;5009279;28;20541;-78
2023/11/30 00:16:28;;;;;;;14.95;11.82;;;1.10;99.90;;;;;;5004569;28;20210;-77
2023/11/30 00:18:58;;;;;;;14.57;10.35;;;1.00;99.90;;;;;;5010346;28;20220;-78
2023/11/30 00:21:25;;;;;;;17.15;10.25;;;1.10;99.90;;;;;;5038365;28;20208;-77
2023/11/30 00:23:52;;;;;;;17.30;11.75;;;0.90;99.90;;;;;;5025279;28;20590;-77
2023/11/30 00:26:19;;;;;;;17.03;12.57;;;0.80;99.90;;;;;;5016632;28;20280;-79
2023/11/30 00:28:46;;;;;;;19.23;11.38;;;0.80;99.90;;;;;;5022089;28;20519;-78
2023/11/30 00:31:13;;;;;;;14.88;10.52;;;0.90;99.90;;;;;;5016641;28;20296;-79
2023/11/30 00:33:40;;;;;;;19.95;14.10;;;0.90;99.90;;;;;;5014749;28;20256;-78
2023/11/30 00:36:10;;;;;;;16.23;11.45;;;0.90;99.90;;;;;;5020917;28;20201;-78
2023/11/30 00:38:37;;;;;;;14.90;10.38;;;0.70;99.90;;;;;;5015440;28;20709;-76
2023/11/30 00:41:05;;;;;;;16.70;10.45;;;0.90;99.90;;;;;;5022008;28;20784;-79
2023/11/30 00:43:33;;;;;;;23.17;10.30;;;0.90;99.90;;;;;;5011214;28;20208;-79
2023/11/30 00:46:04;;;;;;;20.27;12.65;;;0.90;99.90;;;;;;5008813;28;20242;-79
2023/11/30 00:48:31;;;;;;;16.77;10.55;;;0.90;99.90;;;;;;5021108;28;20285;-77
2023/11/30 00:50:58;;;;;;;15.60;10.20;;;0.90;99.90;;;;;;5023436;28;20269;-77
2023/11/30 00:53:26;;;;;;;13.07;10.38;;;0.90;99.90;;;;;;5020815;28;20228;-78
2023/11/30 00:55:55;;;;;;;14.73;9.15;;;0.80;99.90;;;;;;5009179;28;20202;-76
2023/11/30 00:58:22;;;;;;;23.48;11.48;;;0.70;99.90;;;;;;5013232;28;20264;-77
2023/11/30 01:00:49;;;;;;;13.52;9.95;;;0.70;99.90;;;;;;5020690;28;20207;-77
2023/11/30 01:03:16;;;;;;;16.13;11.82;;;0.70;99.90;;;;;;5021959;28;20236;-77
2023/11/30 01:05:43;;;;;;;18.83;11.27;;;0.60;99.90;;;;;;5021659;28;20483;-77
2023/11/30 01:08:12;;;;;;;15.85;9.43;;;0.70;99.90;;;;;;5031587;28;20230;-77
2023/11/30 01:10:42;;;;;;;25.55;11.57;;;0.70;99.90;;;;;;5033518;28;20207;-78
2023/11/30 01:13:09;;;;;;;12.07;8.77;;;0.60;99.90;;;;;;5018523;28;20207;-77
2023/11/30 01:15:36;;;;;;;16.58;12.27;;;0.70;99.90;;;;;;5010688;28;20207;-79
2023/11/30 01:18:04;;;;;;;18.05;11.50;;;0.60;99.90;;;;;;5012916;28;20308;-78
2023/11/30 01:20:30;;;;;;;15.82;10.38;;;0.70;99.90;;;;;;5022380;28;20291;-79
2023/11/30 01:22:57;;;;;;;13.10;10.00;;;0.70;99.90;;;;;;5032121;28;20244;-79
2023/11/30 01:25:27;;;;;;;15.73;11.05;;;0.70;99.90;;;;;;5020663;28;20221;-79
2023/11/30 01:28:03;;;;;;;14.73;10.82;;;0.70;99.90;;;;;;5031443;28;20221;-77
2023/11/30 01:30:30;;;;;;;18.48;11.70;;;0.70;99.90;;;;;;5040374;28;20213;-78
2023/11/30 01:32:59;;;;;;;17.65;12.10;;;0.60;99.90;;;;;;5038080;28;20208;-77
2023/11/30 01:35:28;;;;;;;19.55;13.85;;;0.60;99.90;;;;;;5039154;28;20185;-77
2023/11/30 01:37:56;;;;;;;18.05;11.95;;;0.50;99.90;;;;;;5039609;28;20244;-78
2023/11/30 01:40:24;;;;;;;21.17;13.35;;;0.60;99.90;;;;;;5039547;28;20173;-77
2023/11/30 01:42:51;;;;;;;19.90;13.43;;;0.30;99.90;;;;;;5039327;28;20193;-77
2023/11/30 01:45:20;;;;;;;17.77;11.63;;;0.40;99.90;;;;;;5039790;28;20174;-76
2023/11/30 01:47:47;;;;;;;16.90;12.98;;;0.40;99.90;;;;;;5039482;28;20232;-76
2023/11/30 01:50:15;;;;;;;22.35;13.85;;;0.30;99.90;;;;;;5027071;28;20230;-77
2023/11/30 01:52:53;;;;;;;16.88;11.80;;;0.40;99.90;;;;;;5019588;28;20182;-77
2023/11/30 01:55:20;;;;;;;20.13;14.05;;;0.40;99.90;;;;;;5019311;28;20260;-78
2023/11/30 01:57:47;;;;;;;17.67;13.07;;;0.30;99.90;;;;;;5031783;28;20209;-78
2023/11/30 02:00:16;;;;;;;17.42;11.43;;;0.30;99.90;;;;;;5029445;28;20205;-76
2023/11/30 02:02:45;;;;;;;18.25;12.52;;;0.30;99.90;;;;;;5035697;28;20224;-78
2023/11/30 02:05:17;;;;;;;19.77;12.48;;;0.30;99.90;;;;;;5025874;28;20189;-78
2023/11/30 02:07:48;;;;;;;20.15;12.05;;;0.30;99.90;;;;;;5038236;28;20215;-78
2023/11/30 02:10:19;;;;;;;20.08;11.27;;;0.20;99.90;;;;;;5013751;28;20226;-78
2023/11/30 02:12:55;;;;;;;24.42;13.02;;;0.30;99.90;;;;;;5027017;28;20209;-78
2023/11/30 02:15:29;;;;;;;18.88;12.70;;;0.40;99.90;;;;;;5039968;28;20203;-78
2023/11/30 02:18:14;;;;;;;13.80;10.65;;;0.40;99.90;;;;;;5026362;28;20232;-78
2023/11/30 02:20:43;;;;;;;15.75;11.48;;;0.50;99.90;;;;;;5024442;28;20196;-78
2023/11/30 02:23:12;;;;;;;19.67;13.27;;;0.40;99.90;;;;;;5001404;28;20296;-79
2023/11/30 02:25:39;;;;;;;25.67;13.35;;;0.30;99.90;;;;;;5014023;28;20201;-80
2023/11/30 02:28:06;;;;;;;18.98;13.40;;;0.30;99.90;;;;;;5020800;28;20225;-78
2023/11/30 02:30:32;;;;;;;17.77;11.90;;;0.30;99.90;;;;;;5012485;28;20259;-77
2023/11/30 02:32:59;;;;;;;19.48;12.73;;;0.30;99.90;;;;;;5018148;28;20288;-77
2023/11/30 02:35:26;;;;;;;17.10;13.00;;;0.20;99.90;;;;;;5019848;28;20215;-78
2023/11/30 02:37:53;;;;;;;19.63;13.18;;;0.40;99.90;;;;;;5014919;28;20252;-79
2023/11/30 02:40:21;;;;;;;17.77;11.65;;;0.60;99.90;;;;;;5012468;28;20227;-78
2023/11/30 02:42:49;;;;;;;19.70;13.07;;;0.50;99.90;;;;;;5021603;28;20201;-80
2023/11/30 02:45:15;;;;;;;15.82;11.88;;;0.40;99.90;;;;;;5011655;28;20228;-79
2023/11/30 02:47:42;;;;;;;17.30;12.63;;;0.50;99.90;;;;;;5017646;28;20875;-79
2023/11/30 02:50:10;;;;;;;14.45;10.35;;;0.40;99.90;;;;;;5004741;28;20226;-79
2023/11/30 02:52:37;;;;;;;16.48;10.98;;;0.50;99.90;;;;;;5017241;28;20269;-78
2023/11/30 02:55:05;;;;;;;14.77;12.00;;;0.50;99.90;;;;;;5018567;28;20209;-78
2023/11/30 02:57:33;;;;;;;18.73;13.50;;;0.40;99.90;;;;;;5019781;28;20244;-77
2023/11/30 03:00:00;;;;;;;18.20;14.05;;;0.30;99.90;;;;;;5027917;28;20209;-78
2023/11/30 03:02:27;;;;;;;17.80;12.23;;;0.30;99.90;;;;;;5016458;28;20240;-78
2023/11/30 03:04:54;;;;;;;18.23;13.15;;;0.20;99.90;;;;;;5004234;28;20289;-78
2023/11/30 03:07:21;;;;;;;16.85;11.88;;;0.20;99.90;;;;;;5017680;28;20213;-78
2023/11/30 03:09:48;;;;;;;19.58;13.23;;;0.40;99.90;;;;;;5003654;28;20252;-78
2023/11/30 03:12:15;;;;;;;30.30;14.75;;;0.20;99.90;;;;;;5013369;28;20244;-78
2023/11/30 03:14:47;;;;;;;18.52;14.18;;;0.10;99.90;;;;;;5004146;28;20288;-79
2023/11/30 03:17:14;;;;;;;21.75;15.35;;;0.10;99.90;;;;;;5008221;28;20243;-79
2023/11/30 03:19:41;;;;;;;21.80;14.45;;;0.10;99.90;;;;;;5010567;28;20201;-79
2023/11/30 03:22:08;;;;;;;28.65;14.70;;;0.20;99.90;;;;;;5008052;28;20665;-79
2023/11/30 03:24:35;;;;;;;23.30;16.73;;;0.00;99.90;;;;;;5010165;28;20229;-79
2023/11/30 03:27:02;;;;;;;22.45;15.02;;;-0.20;99.90;;;;;;5006140;28;20233;-79
2023/11/30 03:29:29;;;;;;;19.75;14.77;;;-0.30;99.90;;;;;;5021049;28;20223;-79
2023/11/30 03:31:57;;;;;;;24.20;16.15;;;-0.30;99.90;;;;;;5013425;28;20241;-77
2023/11/30 03:34:27;;;;;;;23.00;14.93;;;-0.40;99.90;;;;;;5012748;28;20194;-77
2023/11/30 03:37:02;;;;;;;23.50;15.45;;;-0.30;99.90;;;;;;5012975;28;20201;-78
2023/11/30 03:39:45;;;;;;;19.17;12.87;;;-0.30;99.90;;;;;;5011964;28;20248;-77
2023/11/30 03:45:15;;;;;;;17.95;13.00;;;0.00;99.90;;;;;;5010202;28;20197;-77
2023/11/30 03:47:47;;;;;;;21.35;12.60;;;0.20;99.90;;;;;;5009483;28;20257;-78
2023/11/30 03:50:14;;;;;;;20.92;13.00;;;0.20;99.90;;;;;;5010051;28;20217;-77
2023/11/30 03:52:41;;;;;;;18.55;13.05;;;0.20;99.90;;;;;;5022005;28;20290;-77
2023/11/30 03:55:09;;;;;;;32.28;14.73;;;0.00;99.90;;;;;;5021183;28;20591;-76
2023/11/30 03:57:36;;;;;;;18.83;13.45;;;-0.10;99.90;;;;;;5017115;28;20700;-78
2023/11/30 04:00:03;;;;;;;23.88;15.48;;;-0.20;99.90;;;;;;5021700;28;20205;-79
2023/11/30 04:02:30;;;;;;;23.30;13.00;;;-0.30;99.90;;;;;;5036402;28;20223;-77
2023/11/30 04:04:59;;;;;;;24.98;16.58;;;-0.30;99.90;;;;;;5032981;28;20236;-77
2023/11/30 04:07:29;;;;;;;24.20;15.50;;;-0.30;99.90;;;;;;5020970;28;20221;-77
2023/11/30 04:09:56;;;;;;;22.02;13.88;;;-0.30;99.90;;;;;;5025429;28;20238;-78
2023/11/30 04:12:23;;;;;;;17.77;12.60;;;-0.20;99.90;;;;;;5026572;28;20221;-78
2023/11/30 04:14:50;;;;;;;23.63;16.45;;;0.00;99.90;;;;;;5030296;28;20218;-78
2023/11/30 04:17:17;;;;;;;22.45;15.13;;;-0.20;99.90;;;;;;5034084;28;20205;-77
2023/11/30 04:19:44;;;;;;;32.72;18.17;;;-0.10;99.90;;;;;;5032144;28;20201;-77
2023/11/30 04:22:12;;;;;;;27.10;17.42;;;-0.20;99.90;;;;;;5018625;28;20213;-77
2023/11/30 04:24:45;;;;;;;30.17;19.30;;;-0.20;99.90;;;;;;5016762;28;20292;-79
2023/11/30 04:27:12;;;;;;;48.03;25.10;;;0.00;99.90;;;;;;5012930;28;20696;-78
2023/11/30 04:29:38;;;;;;;41.33;20.98;;;0.00;99.90;;;;;;5011710;28;20316;-78
2023/11/30 04:32:06;;;;;;;36.28;21.73;;;0.00;99.90;;;;;;5023770;28;20240;-79
2023/11/30 04:34:37;;;;;;;41.88;20.98;;;0.00;99.90;;;;;;5020477;28;20244;-79
2023/11/30 04:37:03;;;;;;;63.28;24.23;;;0.10;99.90;;;;;;5015366;28;20217;-78
2023/11/30 04:39:32;;;;;;;43.78;20.05;;;0.10;99.90;;;;;;5009022;28;20236;-77
2023/11/30 04:41:59;;;;;;;52.63;25.20;;;0.00;99.90;;;;;;5009268;28;20265;-78
2023/11/30 04:44:29;;;;;;;48.38;23.10;;;0.10;99.90;;;;;;5003408;28;20205;-78
2023/11/30 04:46:56;;;;;;;86.70;26.73;;;0.10;99.90;;;;;;5017695;28;20687;-78
2023/11/30 04:49:23;;;;;;;64.63;28.02;;;-0.10;99.90;;;;;;5012437;28;20237;-77
2023/11/30 04:51:50;;;;;;;67.75;29.20;;;0.10;99.90;;;;;;5007711;28;20198;-78
2023/11/30 04:54:17;;;;;;;64.72;26.88;;;-0.10;99.90;;;;;;5015223;28;20244;-77
2023/11/30 04:56:45;;;;;;;52.40;23.77;;;0.00;99.90;;;;;;5014596;28;20208;-77
2023/11/30 04:59:12;;;;;;;87.03;28.02;;;0.00;99.90;;;;;;5001790;28;20874;-78
2023/11/30 05:01:39;;;;;;;59.72;23.30;;;0.00;99.90;;;;;;5008602;28;20217;-77
2023/11/30 05:04:05;;;;;;;75.18;26.23;;;0.00;99.90;;;;;;5026298;28;20763;-78
2023/11/30 05:06:33;;;;;;;65.18;26.80;;;-0.10;99.90;;;;;;5010834;28;20204;-78
2023/11/30 05:09:01;;;;;;;47.75;23.80;;;-0.10;99.90;;;;;;5006450;28;20244;-78
2023/11/30 05:11:28;;;;;;;125.18;35.63;;;0.10;99.90;;;;;;5019972;28;20225;-78
2023/11/30 05:13:57;;;;;;;97.43;28.38;;;0.10;99.90;;;;;;5019929;28;20273;-78
2023/11/30 05:16:24;;;;;;;287.50;54.30;;;0.00;99.90;;;;;;5015437;28;20202;-76
2023/11/30 05:18:51;;;;;;;58.60;23.27;;;0.00;99.90;;;;;;5015787;28;20217;-80
2023/11/30 05:21:20;;;;;;;100.75;32.60;;;0.10;99.90;;;;;;5016364;28;20284;-77
2023/11/30 05:23:48;;;;;;;65.10;27.55;;;0.10;99.90;;;;;;5008614;28;20193;-77
2023/11/30 05:26:15;;;;;;;89.45;29.88;;;0.10;99.90;;;;;;5019301;28;20301;-77
2023/11/30 05:28:43;;;;;;;111.40;30.75;;;0.00;99.90;;;;;;5015000;28;20236;-77
2023/11/30 05:31:11;;;;;;;52.53;24.17;;;0.10;99.90;;;;;;5024903;28;20707;-77
2023/11/30 05:33:39;;;;;;;56.55;22.05;;;0.00;99.90;;;;;;5016236;28;20309;-77
2023/11/30 05:36:06;;;;;;;54.38;21.45;;;-0.20;99.90;;;;;;5014419;28;20214;-77
2023/11/30 05:38:33;;;;;;;50.72;24.05;;;-0.20;99.90;;;;;;5014338;28;20245;-77
2023/11/30 05:41:00;;;;;;;52.95;21.13;;;-0.10;99.90;;;;;;5014269;28;20743;-78
2023/11/30 05:43:33;;;;;;;63.03;23.75;;;0.00;99.90;;;;;;5021437;28;20232;-76
2023/11/30 05:46:00;;;;;;;133.13;30.23;;;0.00;99.90;;;;;;5020340;28;20231;-77
2023/11/30 05:48:28;;;;;;;70.38;28.20;;;-0.10;99.90;;;;;;5011254;28;20293;-79
2023/11/30 05:50:56;;;;;;;90.75;27.48;;;-0.20;99.90;;;;;;5014352;28;20311;-77
2023/11/30 05:53:22;;;;;;;60.17;22.15;;;-0.40;99.90;;;;;;5019317;28;20205;-79
2023/11/30 05:55:50;;;;;;;60.13;26.23;;;-0.40;99.90;;;;;;5027181;28;20224;-78
2023/11/30 05:58:17;;;;;;;66.22;26.90;;;-0.40;99.90;;;;;;5019007;28;20249;-78
2023/11/30 06:00:44;;;;;;;71.28;26.05;;;-0.30;99.90;;;;;;5012192;28;20198;-76
2023/11/30 06:03:20;;;;;;;60.72;21.00;;;-0.30;99.90;;;;;;5023388;28;20284;-78
2023/11/30 06:05:51;;;;;;;62.78;24.48;;;-0.20;99.90;;;;;;5012167;28;20308;-77
2023/11/30 06:08:18;;;;;;;50.10;21.17;;;-0.20;99.90;;;;;;5032516;28;20264;-77
2023/11/30 06:11:17;;;;;;;60.20;22.17;;;-0.20;99.90;;;;;;5015468;28;20222;-78
2023/11/30 06:13:56;;;;;;;108.60;28.88;;;-0.30;99.90;;;;;;5008442;28;20595;-77
2023/11/30 06:16:23;;;;;;;108.50;31.80;;;-0.50;99.90;;;;;;5014294;28;20209;-78
2023/11/30 06:18:49;;;;;;;59.30;26.05;;;-0.50;99.90;;;;;;5020011;28;20256;-78
2023/11/30 06:21:18;;;;;;;70.38;25.50;;;-0.50;99.90;;;;;;5020396;28;20214;-81
2023/11/30 06:23:44;;;;;;;61.75;24.27;;;-0.50;99.90;;;;;;5010305;28;20293;-78
2023/11/30 06:26:11;;;;;;;71.32;24.85;;;-0.50;99.90;;;;;;5004302;28;20202;-79
2023/11/30 06:28:38;;;;;;;86.82;29.02;;;-0.40;99.90;;;;;;5004627;28;20249;-78
2023/11/30 06:31:06;;;;;;;58.90;22.08;;;-0.30;99.90;;;;;;5007006;28;20220;-78
2023/11/30 06:33:33;;;;;;;50.35;21.95;;;-0.40;99.90;;;;;;5011357;28;20240;-79
2023/11/30 06:36:03;;;;;;;33.33;17.85;;;-0.30;99.90;;;;;;5023546;28;20213;-77
2023/11/30 06:38:32;;;;;;;74.47;22.38;;;-0.30;99.90;;;;;;5029886;28;20248;-78
2023/11/30 06:41:23;;;;;;;85.35;21.10;;;-0.40;99.90;;;;;;5029140;28;20205;-77
2023/11/30 06:44:18;;;;;;;43.55;20.67;;;-0.50;99.90;;;;;;5022950;28;20219;-78
2023/11/30 06:46:45;;;;;;;59.10;19.15;;;-0.50;99.90;;;;;;5012695;28;20633;-77
2023/11/30 06:49:27;;;;;;;97.05;24.25;;;-0.30;99.90;;;;;;5018965;28;20225;-78
2023/11/30 06:51:57;;;;;;;27.98;15.20;;;-0.30;99.90;;;;;;5029115;28;20218;-78
2023/11/30 06:54:34;;;;;;;42.38;19.42;;;-0.20;99.90;;;;;;5011648;28;20198;-77
2023/11/30 06:57:01;;;;;;;44.03;21.75;;;-0.20;99.90;;;;;;5021934;28;20263;-77
2023/11/30 06:59:28;;;;;;;79.50;25.08;;;-0.20;99.90;;;;;;5027941;28;20221;-78
2023/11/30 07:01:58;;;;;;;68.43;18.70;;;-0.40;99.90;;;;;;5024981;28;20258;-78
2023/11/30 07:04:38;;;;;;;125.00;25.75;;;-0.20;99.90;;;;;;5015661;28;20206;-78
2023/11/30 07:07:20;;;;;;;53.05;21.77;;;-0.40;99.90;;;;;;5018602;28;20209;-78
2023/11/30 07:10:15;;;;;;;50.20;20.23;;;-0.50;99.90;;;;;;5007262;28;20228;-77
2023/11/30 07:12:53;;;;;;;38.35;19.00;;;-0.50;99.90;;;;;;5024125;28;20217;-82
2023/11/30 07:15:20;;;;;;;151.40;27.02;;;-0.40;99.90;;;;;;5013174;28;20197;-79
2023/11/30 07:17:47;;;;;;;40.50;19.95;;;-0.50;99.90;;;;;;5021138;28;20590;-79
2023/11/30 07:20:16;;;;;;;27.05;16.88;;;-0.60;99.90;;;;;;5010841;28;20201;-79
2023/11/30 07:22:43;;;;;;;54.45;20.20;;;-0.50;99.90;;;;;;5009664;28;20214;-78
2023/11/30 07:25:15;;;;;;;32.22;15.23;;;-0.50;99.90;;;;;;5011145;28;20217;-78
2023/11/30 07:27:42;;;;;;;53.67;17.60;;;-0.40;99.90;;;;;;5021754;28;20279;-75
2023/11/30 07:30:17;;;;;;;115.53;27.63;;;-0.40;99.90;;;;;;5019116;28;20205;-78
2023/11/30 07:32:48;;;;;;;42.10;19.92;;;-0.30;99.90;;;;;;5020743;28;20669;-77
2023/11/30 07:35:15;;;;;;;125.55;24.73;;;-0.20;99.90;;;;;;5020027;28;20237;-80
2023/11/30 07:37:42;;;;;;;39.25;19.50;;;-0.40;99.90;;;;;;5016073;28;20226;-80
2023/11/30 07:40:10;;;;;;;55.85;23.50;;;-0.50;99.90;;;;;;5032979;28;20205;-78
2023/11/30 07:42:38;;;;;;;70.75;24.50;;;-0.40;99.90;;;;;;5019181;28;20707;-76
2023/11/30 07:45:09;;;;;;;49.55;22.58;;;-0.40;99.90;;;;;;5020929;28;20215;-84
2023/11/30 07:47:38;;;;;;;42.45;21.27;;;-0.40;99.90;;;;;;5020216;28;20214;-82
2023/11/30 07:50:05;;;;;;;47.38;21.52;;;-0.20;99.90;;;;;;5035256;28;20201;-82
2023/11/30 07:52:35;;;;;;;68.45;24.60;;;-0.20;99.90;;;;;;5032377;28;20276;-82
2023/11/30 07:55:07;;;;;;;101.00;24.20;;;-0.40;99.90;;;;;;5015390;28;20205;-79
2023/11/30 07:57:47;;;;;;;42.72;17.95;;;-0.30;99.90;;;;;;5023717;28;20229;-77
2023/11/30 08:00:15;;;;;;;39.22;16.45;;;-0.30;99.90;;;;;;5006356;28;20201;-77
2023/11/30 08:02:42;;;;;;;62.05;19.63;;;-0.20;99.90;;;;;;5008815;28;20228;-80
2023/11/30 08:05:39;;;;;;;57.70;22.95;;;-0.20;99.90;;;;;;5009392;28;20472;-80
2023/11/30 08:08:05;;;;;;;37.15;16.77;;;-0.10;99.90;;;;;;5000726;28;20220;-77
2023/11/30 08:10:42;;;;;;;65.30;21.58;;;-0.20;99.90;;;;;;5003230;28;20198;-81
2023/11/30 08:16:52;;;;;;;43.22;17.13;;;-0.20;99.90;;;;;;5017495;28;20243;-79
2023/11/30 08:19:28;;;;;;;57.88;22.45;;;-0.30;99.90;;;;;;5001903;28;20229;-80
2023/11/30 08:21:57;;;;;;;57.85;17.95;;;-0.10;99.90;;;;;;5020222;28;20205;-80
2023/11/30 08:25:11;;;;;;;48.15;18.05;;;-0.30;99.90;;;;;;5008655;28;20205;-81
2023/11/30 08:27:53;;;;;;;76.07;20.17;;;-0.50;99.90;;;;;;5006439;28;20233;-79
2023/11/30 08:31:05;;;;;;;60.05;20.30;;;-0.30;99.90;;;;;;5013106;28;20213;-82
2023/11/30 08:40:11;;;;;;;29.42;14.38;;;-0.20;99.90;;;;;;5006795;28;20189;-82
2023/11/30 08:48:40;;;;;;;19.58;11.50;;;0.00;99.90;;;;;;5013719;28;20217;-81
2023/11/30 08:51:19;;;;;;;31.55;12.55;;;0.10;99.90;;;;;;5021223;28;20585;-80
2023/11/30 08:54:09;;;;;;;27.73;12.80;;;0.20;99.90;;;;;;5022150;28;20213;-80
2023/11/30 08:56:38;;;;;;;45.83;16.88;;;0.10;99.90;;;;;;5019723;28;20296;-79
2023/11/30 08:59:10;;;;;;;45.55;12.15;;;0.10;99.90;;;;;;5007941;28;20228;-79
2023/11/30 09:01:41;;;;;;;29.77;12.75;;;0.10;99.90;;;;;;5014506;28;20205;-78
2023/11/30 09:04:09;;;;;;;45.60;12.70;;;0.10;99.90;;;;;;5017564;28;20205;-78
2023/11/30 09:06:38;;;;;;;27.42;13.65;;;0.30;99.90;;;;;;5016948;28;20217;-78
2023/11/30 09:09:08;;;;;;;26.95;13.18;;;0.40;99.90;;;;;;5011633;28;20270;-78
2023/11/30 09:11:35;;;;;;;48.43;14.23;;;0.50;99.90;;;;;;5022556;28;20260;-79
2023/11/30 09:14:04;;;;;;;18.00;10.30;;;0.50;99.90;;;;;;5015885;28;20456;-80
2023/11/30 09:16:31;;;;;;;73.43;14.27;;;0.40;99.90;;;;;;5013507;28;20623;-79
2023/11/30 09:19:13;;;;;;;24.02;11.90;;;0.20;99.90;;;;;;5027814;28;20229;-81
2023/11/30 09:22:01;;;;;;;29.23;14.07;;;0.10;99.90;;;;;;5022147;28;20212;-78
2023/11/30 09:24:32;;;;;;;16.65;10.40;;;0.10;99.90;;;;;;5022255;28;20208;-77
2023/11/30 09:26:59;;;;;;;18.13;11.25;;;0.30;99.90;;;;;;5026435;28;20735;-77
2023/11/30 09:29:31;;;;;;;22.58;11.73;;;0.40;99.90;;;;;;5026891;28;20221;-77
2023/11/30 09:32:10;;;;;;;21.05;13.90;;;0.10;99.90;;;;;;5025356;28;20245;-80
2023/11/30 09:35:13;;;;;;;18.15;9.73;;;0.20;99.90;;;;;;5012527;28;20267;-80
2023/11/30 09:38:16;;;;;;;14.38;8.90;;;0.30;99.90;;;;;;5017188;28;20229;-79
2023/11/30 09:40:47;;;;;;;17.05;10.30;;;0.40;99.90;;;;;;5019692;28;20209;-80
2023/11/30 09:43:22;;;;;;;19.48;12.07;;;0.30;99.90;;;;;;5031701;28;20241;-80
2023/11/30 09:45:54;;;;;;;21.88;14.05;;;0.50;99.90;;;;;;5015099;28;20206;-79
2023/11/30 09:48:22;;;;;;;17.27;11.02;;;0.70;99.90;;;;;;5007795;28;21017;-80
2023/11/30 09:51:33;;;;;;;15.85;10.50;;;0.80;99.90;;;;;;5011117;28;20233;-79
2023/11/30 09:54:08;;;;;;;16.60;9.45;;;0.60;99.90;;;;;;5009246;28;20313;-80
2023/11/30 09:57:36;;;;;;;20.35;9.60;;;0.60;99.90;;;;;;5020743;28;20567;-80
2023/11/30 10:00:56;;;;;;;19.13;10.15;;;0.80;99.90;;;;;;5013389;28;20213;-79
2023/11/30 10:03:32;;;;;;;17.30;9.68;;;0.60;99.90;;;;;;5029105;28;20202;-79
2023/11/30 10:05:59;;;;;;;25.73;11.63;;;0.60;99.90;;;;;;5023486;28;20206;-79
2023/11/30 10:08:35;;;;;;;15.43;9.27;;;0.80;99.90;;;;;;5024036;28;20226;-79
2023/11/30 10:11:05;;;;;;;23.42;12.18;;;0.80;99.90;;;;;;5008549;28;20205;-79
2023/11/30 10:16:59;;;;;;;18.27;10.23;;;0.80;99.90;;;;;;5012320;28;20202;-79
2023/11/30 10:19:30;;;;;;;19.30;11.10;;;0.80;99.90;;;;;;5019647;28;20229;-79
2023/11/30 10:22:35;;;;;;;15.30;9.52;;;1.00;99.90;;;;;;5013274;28;20209;-79
2023/11/30 10:25:17;;;;;;;15.88;10.05;;;1.00;99.90;;;;;;5013395;28;20215;-78
2023/11/30 10:27:57;;;;;;;17.25;10.07;;;1.10;99.90;;;;;;5019044;28;20240;-79
2023/11/30 10:31:04;;;;;;;14.60;8.43;;;1.00;99.90;;;;;;5026134;28;20237;-79
2023/11/30 10:36:47;;;;;;;19.27;10.75;;;1.20;99.90;;;;;;5018554;28;20220;-80
2023/11/30 10:39:30;;;;;;;16.60;10.63;;;1.20;99.90;;;;;;5013862;28;20283;-80
2023/11/30 10:45:08;;;;;;;19.35;10.45;;;1.10;99.90;;;;;;5019007;28;20221;-80
2023/11/30 10:47:40;;;;;;;19.08;10.90;;;1.20;99.90;;;;;;5018219;28;20223;-83
2023/11/30 10:50:11;;;;;;;26.38;13.98;;;1.30;99.90;;;;;;5024451;28;20569;-83
2023/11/30 10:52:48;;;;;;;27.00;13.80;;;1.30;99.90;;;;;;5023286;28;20234;-83
2023/11/30 10:55:19;;;;;;;25.60;13.93;;;1.60;99.90;;;;;;5024230;28;20202;-83
2023/11/30 10:57:54;;;;;;;29.10;16.60;;;1.60;99.90;;;;;;5019524;28;20250;-83
2023/11/30 11:00:27;;;;;;;24.77;14.37;;;1.50;99.90;;;;;;5027490;28;20196;-83
2023/11/30 11:03:08;;;;;;;28.50;14.93;;;1.50;99.90;;;;;;5023226;28;20712;-83
2023/11/30 11:05:46;;;;;;;28.83;15.63;;;1.70;99.90;;;;;;5020643;28;20205;-83
2023/11/30 11:08:19;;;;;;;19.90;14.40;;;1.70;99.90;;;;;;5031826;28;20229;-83
2023/11/30 11:10:48;;;;;;;21.25;14.52;;;1.60;99.90;;;;;;5023130;28;20211;-82
2023/11/30 11:13:28;;;;;;;29.88;16.45;;;1.50;99.90;;;;;;5026408;28;20224;-83
2023/11/30 11:16:08;;;;;;;28.02;15.52;;;1.40;99.90;;;;;;5015488;28;20202;-82
2023/11/30 11:21:42;;;;;;;27.83;15.60;;;1.40;99.90;;;;;;5012641;28;20201;-85
2023/11/30 11:24:23;;;;;;;28.83;15.35;;;1.40;99.90;;;;;;5032641;28;20276;-82
2023/11/30 11:27:13;;;;;;;31.70;15.35;;;1.50;99.90;;;;;;5028439;28;20204;-83
2023/11/30 11:29:46;;;;;;;27.77;17.45;;;1.50;99.90;;;;;;5021347;28;20224;-82
2023/11/30 11:32:14;;;;;;;37.70;20.58;;;1.50;99.90;;;;;;5019938;28;20229;-81
2023/11/30 11:34:45;;;;;;;26.88;16.02;;;1.60;99.90;;;;;;5011785;28;20212;-82
2023/11/30 11:37:12;;;;;;;31.75;19.45;;;1.40;99.90;;;;;;5014591;28;20269;-81
2023/11/30 11:39:39;;;;;;;26.90;14.55;;;1.40;99.90;;;;;;5023651;28;20391;-82
2023/11/30 11:42:07;;;;;;;29.75;16.30;;;1.40;99.90;;;;;;5026686;28;20280;-83
2023/11/30 11:44:34;;;;;;;31.58;16.90;;;1.40;99.90;;;;;;5018964;28;20284;-83
2023/11/30 11:47:03;;;;;;;25.10;14.82;;;1.40;99.90;;;;;;5008286;28;20209;-82
2023/11/30 11:49:30;;;;;;;22.40;15.80;;;1.60;99.90;;;;;;5011120;28;20206;-83
2023/11/30 11:52:00;;;;;;;26.50;16.10;;;1.50;99.90;;;;;;5017842;28;20221;-84
2023/11/30 12:00:39;;;;;;;28.98;18.45;;;1.10;99.90;;;;;;5006527;28;20206;-81
2023/11/30 12:03:36;;;;;;;26.80;15.73;;;1.30;99.90;;;;;;5015384;28;20207;-81
2023/11/30 12:06:41;;;;;;;22.67;15.15;;;1.30;99.90;;;;;;5009869;28;20240;-81
2023/11/30 12:09:27;;;;;;;31.63;17.77;;;1.40;99.90;;;;;;5009068;28;20252;-80
2023/11/30 12:12:14;;;;;;;33.13;19.77;;;1.30;99.90;;;;;;5019260;28;20693;-80
2023/11/30 12:18:14;;;;;;;39.15;19.45;;;1.20;99.90;;;;;;5030062;23;20317;-72
2023/11/30 12:20:41;;;;;;;33.67;20.20;;;1.20;99.90;;;;;;5035187;28;20196;-68
2023/11/30 12:23:08;;;;;;;34.13;19.23;;;1.10;99.90;;;;;;5038358;28;20243;-75
2023/11/30 12:25:38;;;;;;;29.92;18.10;;;1.20;99.90;;;;;;5018634;28;20243;-74
2023/11/30 12:28:06;;;;;;;44.05;21.23;;;1.20;99.90;;;;;;5029848;28;20686;-71
2023/11/30 12:30:33;;;;;;;29.13;17.48;;;1.30;99.90;;;;;;5029524;28;20205;-73
2023/11/30 12:33:00;;;;;;;28.50;18.48;;;1.30;99.90;;;;;;5038100;28;20311;-73
2023/11/30 12:35:29;;;;;;;31.00;16.88;;;1.40;99.90;;;;;;5025421;28;21005;-71
2023/11/30 12:37:56;;;;;;;33.83;20.15;;;1.50;99.90;;;;;;5022165;28;20264;-72
2023/11/30 12:40:23;;;;;;;32.03;20.92;;;1.50;99.90;;;;;;5024979;28;20258;-71
2023/11/30 12:42:50;;;;;;;33.47;18.15;;;1.50;99.90;;;;;;5027546;28;20246;-70
2023/11/30 12:45:18;;;;;;;34.30;20.23;;;1.50;99.90;;;;;;5034409;28;20247;-72
2023/11/30 12:47:45;;;;;;;33.38;19.27;;;1.30;99.90;;;;;;5031110;28;20293;-70
2023/11/30 12:50:13;;;;;;;37.83;20.02;;;1.30;99.90;;;;;;5035066;28;20248;-71
2023/11/30 12:52:42;;;;;;;28.77;17.02;;;1.40;99.90;;;;;;5039744;28;20220;-69
2023/11/30 12:55:09;;;;;;;25.92;14.93;;;1.50;99.90;;;;;;5023586;28;20228;-69
2023/11/30 12:57:38;;;;;;;28.02;17.40;;;1.60;99.90;;;;;;5027381;28;20604;-73
2023/11/30 13:00:13;;;;;;;28.27;20.55;;;1.50;99.90;;;;;;5024297;28;20671;-72
2023/11/30 13:02:43;;;;;;;37.35;19.63;;;1.60;99.90;;;;;;5028790;28;20228;-71
2023/11/30 13:05:10;;;;;;;42.13;23.00;;;1.60;99.90;;;;;;5031301;28;20232;-70
2023/11/30 13:07:39;;;;;;;32.42;18.10;;;1.40;99.90;;;;;;5023982;28;20212;-71
2023/11/30 13:10:10;;;;;;;29.10;18.05;;;1.30;99.90;;;;;;5020506;28;20240;-70
2023/11/30 13:12:37;;;;;;;33.70;20.02;;;1.40;99.90;;;;;;5029824;28;20220;-74
2023/11/30 13:15:08;;;;;;;38.35;20.02;;;1.40;99.90;;;;;;5023380;28;20282;-71
2023/11/30 13:17:38;;;;;;;33.13;19.77;;;1.30;99.90;;;;;;5024491;28;20210;-73
2023/11/30 13:20:07;;;;;;;50.35;24.92;;;1.30;99.90;;;;;;5032218;28;20205;-73
2023/11/30 13:22:34;;;;;;;34.78;19.40;;;1.30;99.90;;;;;;5027583;28;20201;-73
2023/11/30 13:25:01;;;;;;;33.85;18.73;;;1.30;99.90;;;;;;5024041;28;20610;-72
2023/11/30 13:27:30;;;;;;;32.28;17.73;;;1.30;99.90;;;;;;5025966;28;20205;-72
2023/11/30 13:29:57;;;;;;;32.40;18.48;;;1.30;99.90;;;;;;5027176;28;20205;-71
2023/11/30 13:32:24;;;;;;;31.83;16.95;;;1.30;99.90;;;;;;5027582;28;20231;-71
2023/11/30 13:34:51;;;;;;;31.73;17.85;;;1.20;99.90;;;;;;5023926;28;20248;-71
2023/11/30 13:37:18;;;;;;;34.15;19.30;;;1.20;99.90;;;;;;5030642;28;20197;-72